sensor_id;sensor_type;location;lat;lon;timestamp;P1;durP1;ratioP1;P2;durP2;ratioP2
53688;SDS011;39583;54.682;30.662;2024-03-23T05:50:31;17.85;;;9.30;;
53688;SDS011;39583;54.682;30.662;2024-03-23T05:52:57;14.90;;;7.25;;
53688;SDS011;39583;54.682;30.662;2024-03-23T05:55:23;12.45;;;7.40;;
53688;SDS011;39583;54.682;30.662;2024-03-23T05:57:50;16.98;;;7.32;;
53688;SDS011;39583;54.682;30.662;2024-03-23T06:00:16;12.13;;;6.13;;
53688;SDS011;39583;54.682;30.662;2024-03-23T06:02:43;15.77;;;8.38;;
53688;SDS011;39583;54.682;30.662;2024-03-23T07:28:13;26.38;;;12.80;;
53688;SDS011;39583;54.682;30.662;2024-03-23T07:30:40;21.00;;;11.30;;
53688;SDS011;39583;54.682;30.662;2024-03-23T07:33:06;25.35;;;11.68;;
53688;SDS011;39583;54.682;30.662;2024-03-23T07:35:33;22.52;;;11.63;;
53688;SDS011;39583;54.682;30.662;2024-03-23T07:37:59;23.73;;;11.70;;
53688;SDS011;39583;54.682;30.662;2024-03-23T07:40:31;22.45;;;10.82;;
53688;SDS011;39583;54.682;30.662;2024-03-23T07:42:57;23.38;;;11.55;;
53688;SDS011;39583;54.682;30.662;2024-03-23T07:45:24;21.17;;;10.20;;
53688;SDS011;39583;54.682;30.662;2024-03-23T07:47:50;29.52;;;11.35;;
53688;SDS011;39583;54.682;30.662;2024-03-23T07:50:16;20.92;;;10.10;;
53688;SDS011;39583;54.682;30.662;2024-03-23T07:52:43;23.60;;;10.02;;
53688;SDS011;39583;54.682;30.662;2024-03-23T07:55:09;20.58;;;10.35;;
53688;SDS011;39583;54.682;30.662;2024-03-23T07:57:35;23.77;;;11.75;;
53688;SDS011;39583;54.682;30.662;2024-03-23T08:00:02;25.52;;;12.30;;
53688;SDS011;39583;54.682;30.662;2024-03-23T08:02:29;25.40;;;12.13;;
53688;SDS011;39583;54.682;30.662;2024-03-23T08:04:56;23.67;;;11.88;;
53688;SDS011;39583;54.682;30.662;2024-03-23T08:07:22;21.58;;;10.43;;
53688;SDS011;39583;54.682;30.662;2024-03-23T08:09:48;23.38;;;11.10;;
53688;SDS011;39583;54.682;30.662;2024-03-23T08:12:15;25.33;;;12.27;;
53688;SDS011;39583;54.682;30.662;2024-03-23T08:14:41;22.90;;;12.48;;
53688;SDS011;39583;54.682;30.662;2024-03-23T08:17:07;24.80;;;12.30;;
53688;SDS011;39583;54.682;30.662;2024-03-23T08:19:34;27.40;;;12.50;;
53688;SDS011;39583;54.682;30.662;2024-03-23T08:22:00;19.23;;;10.10;;
53688;SDS011;39583;54.682;30.662;2024-03-23T08:24:28;19.48;;;10.35;;
53688;SDS011;39583;54.682;30.662;2024-03-23T08:26:54;20.10;;;10.98;;
53688;SDS011;39583;54.682;30.662;2024-03-23T08:29:21;24.08;;;12.65;;
53688;SDS011;39583;54.682;30.662;2024-03-23T08:31:47;22.30;;;10.25;;
53688;SDS011;39583;54.682;30.662;2024-03-23T08:34:13;21.40;;;10.52;;
53688;SDS011;39583;54.682;30.662;2024-03-23T08:36:40;19.08;;;9.43;;
53688;SDS011;39583;54.682;30.662;2024-03-23T08:39:06;21.20;;;10.52;;
53688;SDS011;39583;54.682;30.662;2024-03-23T08:41:32;21.17;;;10.65;;
53688;SDS011;39583;54.682;30.662;2024-03-23T08:43:59;20.52;;;9.95;;
53688;SDS011;39583;54.682;30.662;2024-03-23T08:46:26;20.05;;;11.23;;
53688;SDS011;39583;54.682;30.662;2024-03-23T08:48:53;23.42;;;10.82;;
53688;SDS011;39583;54.682;30.662;2024-03-23T08:51:19;22.38;;;11.32;;
53688;SDS011;39583;54.682;30.662;2024-03-23T08:53:46;23.73;;;11.10;;
53688;SDS011;39583;54.682;30.662;2024-03-23T08:56:12;18.15;;;10.00;;
53688;SDS011;39583;54.682;30.662;2024-03-23T08:58:38;19.30;;;10.05;;
53688;SDS011;39583;54.682;30.662;2024-03-23T09:01:09;20.30;;;10.60;;
53688;SDS011;39583;54.682;30.662;2024-03-23T09:03:36;20.45;;;10.52;;
53688;SDS011;39583;54.682;30.662;2024-03-23T09:06:09;20.40;;;10.65;;
53688;SDS011;39583;54.682;30.662;2024-03-23T09:08:37;21.02;;;9.63;;
53688;SDS011;39583;54.682;30.662;2024-03-23T09:11:09;20.65;;;10.13;;
53688;SDS011;39583;54.682;30.662;2024-03-23T09:13:36;18.67;;;9.70;;
53688;SDS011;39583;54.682;30.662;2024-03-23T09:16:04;17.25;;;9.27;;
53688;SDS011;39583;54.682;30.662;2024-03-23T09:18:31;19.58;;;9.63;;
53688;SDS011;39583;54.682;30.662;2024-03-23T09:20:58;21.85;;;10.70;;
53688;SDS011;39583;54.682;30.662;2024-03-23T09:23:25;14.95;;;9.60;;
53688;SDS011;39583;54.682;30.662;2024-03-23T09:25:51;19.02;;;10.73;;
53688;SDS011;39583;54.682;30.662;2024-03-23T09:28:18;19.73;;;9.73;;
53688;SDS011;39583;54.682;30.662;2024-03-23T09:30:44;16.95;;;9.07;;
53688;SDS011;39583;54.682;30.662;2024-03-23T09:33:11;17.27;;;9.50;;
53688;SDS011;39583;54.682;30.662;2024-03-23T09:35:39;22.30;;;10.25;;
53688;SDS011;39583;54.682;30.662;2024-03-23T09:38:06;15.80;;;8.23;;
53688;SDS011;39583;54.682;30.662;2024-03-23T09:40:42;18.80;;;9.55;;
53688;SDS011;39583;54.682;30.662;2024-03-23T09:43:09;16.73;;;9.70;;
53688;SDS011;39583;54.682;30.662;2024-03-23T09:45:36;15.95;;;7.35;;
53688;SDS011;39583;54.682;30.662;2024-03-23T09:48:06;18.52;;;9.32;;
53688;SDS011;39583;54.682;30.662;2024-03-23T09:50:34;17.00;;;9.27;;
53688;SDS011;39583;54.682;30.662;2024-03-23T09:53:01;16.05;;;8.07;;
53688;SDS011;39583;54.682;30.662;2024-03-23T09:55:28;16.17;;;8.20;;
53688;SDS011;39583;54.682;30.662;2024-03-23T09:57:54;16.48;;;8.73;;
53688;SDS011;39583;54.682;30.662;2024-03-23T10:00:20;17.20;;;9.45;;
53688;SDS011;39583;54.682;30.662;2024-03-23T10:02:47;14.20;;;8.57;;
53688;SDS011;39583;54.682;30.662;2024-03-23T10:05:20;15.30;;;8.30;;
53688;SDS011;39583;54.682;30.662;2024-03-23T10:07:50;13.82;;;7.05;;
53688;SDS011;39583;54.682;30.662;2024-03-23T10:10:16;12.02;;;7.65;;
53688;SDS011;39583;54.682;30.662;2024-03-23T10:12:48;14.68;;;7.57;;
53688;SDS011;39583;54.682;30.662;2024-03-23T10:15:18;13.10;;;7.75;;
53688;SDS011;39583;54.682;30.662;2024-03-23T10:17:45;15.73;;;7.88;;
53688;SDS011;39583;54.682;30.662;2024-03-23T10:20:12;16.45;;;8.63;;
53688;SDS011;39583;54.682;30.662;2024-03-23T10:22:38;13.40;;;7.57;;
53688;SDS011;39583;54.682;30.662;2024-03-23T10:25:09;13.93;;;6.22;;
53688;SDS011;39583;54.682;30.662;2024-03-23T10:27:36;12.88;;;7.43;;
53688;SDS011;39583;54.682;30.662;2024-03-23T10:30:09;13.85;;;7.25;;
53688;SDS011;39583;54.682;30.662;2024-03-23T10:32:37;13.65;;;7.13;;
53688;SDS011;39583;54.682;30.662;2024-03-23T10:35:17;13.90;;;7.55;;
53688;SDS011;39583;54.682;30.662;2024-03-23T10:37:45;11.50;;;7.60;;
53688;SDS011;39583;54.682;30.662;2024-03-23T10:42:44;12.82;;;6.63;;
53688;SDS011;39583;54.682;30.662;2024-03-23T10:45:10;11.30;;;6.38;;
53688;SDS011;39583;54.682;30.662;2024-03-23T10:47:37;9.70;;;5.50;;
53688;SDS011;39583;54.682;30.662;2024-03-23T10:50:04;10.95;;;6.85;;
53688;SDS011;39583;54.682;30.662;2024-03-23T10:52:33;10.98;;;6.50;;
53688;SDS011;39583;54.682;30.662;2024-03-23T10:55:04;11.38;;;6.00;;
53688;SDS011;39583;54.682;30.662;2024-03-23T10:57:51;10.43;;;6.18;;
53688;SDS011;39583;54.682;30.662;2024-03-23T11:00:20;11.13;;;5.20;;
53688;SDS011;39583;54.682;30.662;2024-03-23T11:02:47;10.38;;;5.97;;
53688;SDS011;39583;54.682;30.662;2024-03-23T11:05:28;10.38;;;5.45;;
53688;SDS011;39583;54.682;30.662;2024-03-23T11:07:57;9.00;;;4.78;;
53688;SDS011;39583;54.682;30.662;2024-03-23T11:10:27;9.27;;;5.18;;
53688;SDS011;39583;54.682;30.662;2024-03-23T11:15:51;8.50;;;4.82;;
53688;SDS011;39583;54.682;30.662;2024-03-23T11:18:20;12.23;;;6.07;;
53688;SDS011;39583;54.682;30.662;2024-03-23T11:20:47;10.65;;;6.05;;
53688;SDS011;39583;54.682;30.662;2024-03-23T11:23:28;9.82;;;5.40;;
53688;SDS011;39583;54.682;30.662;2024-03-23T11:25:55;7.90;;;4.82;;
53688;SDS011;39583;54.682;30.662;2024-03-23T11:28:21;10.05;;;5.20;;
53688;SDS011;39583;54.682;30.662;2024-03-23T11:30:47;9.40;;;5.90;;
53688;SDS011;39583;54.682;30.662;2024-03-23T11:33:14;10.65;;;5.40;;
53688;SDS011;39583;54.682;30.662;2024-03-23T11:35:42;14.52;;;6.68;;
53688;SDS011;39583;54.682;30.662;2024-03-23T11:40:39;9.93;;;5.35;;
53688;SDS011;39583;54.682;30.662;2024-03-23T11:43:15;9.52;;;4.95;;
53688;SDS011;39583;54.682;30.662;2024-03-23T11:45:48;11.43;;;5.75;;
53688;SDS011;39583;54.682;30.662;2024-03-23T11:48:23;11.25;;;6.00;;
53688;SDS011;39583;54.682;30.662;2024-03-23T11:50:50;8.95;;;4.25;;
53688;SDS011;39583;54.682;30.662;2024-03-23T11:53:24;7.75;;;4.65;;
53688;SDS011;39583;54.682;30.662;2024-03-23T11:55:57;7.00;;;4.20;;
53688;SDS011;39583;54.682;30.662;2024-03-23T11:58:26;9.38;;;4.75;;
53688;SDS011;39583;54.682;30.662;2024-03-23T12:00:55;8.75;;;4.13;;
53688;SDS011;39583;54.682;30.662;2024-03-23T12:03:24;7.18;;;3.88;;
53688;SDS011;39583;54.682;30.662;2024-03-23T12:05:58;6.90;;;4.18;;
53688;SDS011;39583;54.682;30.662;2024-03-23T12:08:31;9.02;;;4.40;;
53688;SDS011;39583;54.682;30.662;2024-03-23T12:11:05;9.32;;;4.45;;
53688;SDS011;39583;54.682;30.662;2024-03-23T12:13:33;8.73;;;4.43;;
53688;SDS011;39583;54.682;30.662;2024-03-23T12:18:43;5.75;;;2.95;;
53688;SDS011;39583;54.682;30.662;2024-03-23T12:21:10;5.85;;;2.90;;
53688;SDS011;39583;54.682;30.662;2024-03-23T12:23:40;5.95;;;3.05;;
53688;SDS011;39583;54.682;30.662;2024-03-23T12:26:08;7.68;;;3.60;;
53688;SDS011;39583;54.682;30.662;2024-03-23T12:28:34;5.78;;;3.20;;
53688;SDS011;39583;54.682;30.662;2024-03-23T12:31:00;6.50;;;2.95;;
53688;SDS011;39583;54.682;30.662;2024-03-23T12:33:27;7.13;;;3.60;;
53688;SDS011;39583;54.682;30.662;2024-03-23T12:35:53;4.93;;;2.90;;
53688;SDS011;39583;54.682;30.662;2024-03-23T12:38:19;5.72;;;2.97;;
53688;SDS011;39583;54.682;30.662;2024-03-23T12:40:46;7.55;;;3.10;;
53688;SDS011;39583;54.682;30.662;2024-03-23T12:43:16;6.57;;;2.92;;
53688;SDS011;39583;54.682;30.662;2024-03-23T12:45:46;8.57;;;3.20;;
53688;SDS011;39583;54.682;30.662;2024-03-23T12:48:13;6.75;;;2.83;;
53688;SDS011;39583;54.682;30.662;2024-03-23T12:50:40;5.72;;;3.10;;
53688;SDS011;39583;54.682;30.662;2024-03-23T12:53:06;7.97;;;3.13;;
53688;SDS011;39583;54.682;30.662;2024-03-23T12:55:34;4.90;;;2.17;;
53688;SDS011;39583;54.682;30.662;2024-03-23T12:58:01;6.00;;;2.25;;
53688;SDS011;39583;54.682;30.662;2024-03-23T13:00:28;5.72;;;2.05;;
53688;SDS011;39583;54.682;30.662;2024-03-23T13:02:55;3.88;;;1.85;;
53688;SDS011;39583;54.682;30.662;2024-03-23T13:05:22;3.47;;;1.90;;
53688;SDS011;39583;54.682;30.662;2024-03-23T13:07:48;4.15;;;1.88;;
53688;SDS011;39583;54.682;30.662;2024-03-23T13:10:14;7.25;;;2.92;;
53688;SDS011;39583;54.682;30.662;2024-03-23T13:12:41;5.85;;;3.65;;
53688;SDS011;39583;54.682;30.662;2024-03-23T13:15:09;8.55;;;4.80;;
53688;SDS011;39583;54.682;30.662;2024-03-23T13:17:35;5.68;;;2.50;;
53688;SDS011;39583;54.682;30.662;2024-03-23T13:20:01;4.25;;;2.35;;
53688;SDS011;39583;54.682;30.662;2024-03-23T13:22:29;8.50;;;3.70;;
53688;SDS011;39583;54.682;30.662;2024-03-23T13:24:56;3.95;;;2.25;;
53688;SDS011;39583;54.682;30.662;2024-03-23T13:27:22;6.30;;;2.65;;
53688;SDS011;39583;54.682;30.662;2024-03-23T13:29:48;6.50;;;2.95;;
53688;SDS011;39583;54.682;30.662;2024-03-23T13:32:16;4.38;;;2.20;;
53688;SDS011;39583;54.682;30.662;2024-03-23T13:34:43;3.05;;;1.50;;
53688;SDS011;39583;54.682;30.662;2024-03-23T13:37:09;5.03;;;1.83;;
53688;SDS011;39583;54.682;30.662;2024-03-23T13:39:36;3.45;;;1.58;;
53688;SDS011;39583;54.682;30.662;2024-03-23T13:42:02;5.70;;;1.70;;
53688;SDS011;39583;54.682;30.662;2024-03-23T13:44:29;2.83;;;1.48;;
53688;SDS011;39583;54.682;30.662;2024-03-23T13:46:55;2.60;;;1.63;;
53688;SDS011;39583;54.682;30.662;2024-03-23T13:49:28;4.20;;;1.73;;
53688;SDS011;39583;54.682;30.662;2024-03-23T13:51:57;4.53;;;1.92;;
53688;SDS011;39583;54.682;30.662;2024-03-23T13:54:27;2.60;;;1.25;;
53688;SDS011;39583;54.682;30.662;2024-03-23T13:56:54;5.63;;;2.15;;
53688;SDS011;39583;54.682;30.662;2024-03-23T13:59:22;5.20;;;1.17;;
53688;SDS011;39583;54.682;30.662;2024-03-23T14:01:51;3.53;;;1.50;;
53688;SDS011;39583;54.682;30.662;2024-03-23T14:04:18;3.53;;;1.38;;
53688;SDS011;39583;54.682;30.662;2024-03-23T14:06:46;4.63;;;1.48;;
53688;SDS011;39583;54.682;30.662;2024-03-23T14:09:13;5.18;;;1.40;;
53688;SDS011;39583;54.682;30.662;2024-03-23T14:11:40;2.70;;;0.93;;
53688;SDS011;39583;54.682;30.662;2024-03-23T14:14:09;4.03;;;1.70;;
53688;SDS011;39583;54.682;30.662;2024-03-23T14:16:36;5.78;;;1.67;;
53688;SDS011;39583;54.682;30.662;2024-03-23T14:19:02;2.83;;;1.38;;
53688;SDS011;39583;54.682;30.662;2024-03-23T14:21:31;6.68;;;1.65;;
53688;SDS011;39583;54.682;30.662;2024-03-23T14:23:57;4.47;;;1.35;;
53688;SDS011;39583;54.682;30.662;2024-03-23T14:26:23;5.60;;;1.55;;
53688;SDS011;39583;54.682;30.662;2024-03-23T14:28:50;8.73;;;4.72;;
53688;SDS011;39583;54.682;30.662;2024-03-23T14:31:16;17.85;;;7.35;;
53688;SDS011;39583;54.682;30.662;2024-03-23T14:33:42;4.20;;;1.58;;
53688;SDS011;39583;54.682;30.662;2024-03-23T14:36:16;3.40;;;1.30;;
53688;SDS011;39583;54.682;30.662;2024-03-23T14:38:49;8.23;;;4.13;;
53688;SDS011;39583;54.682;30.662;2024-03-23T14:41:15;8.45;;;3.08;;
53688;SDS011;39583;54.682;30.662;2024-03-23T14:43:42;4.88;;;2.33;;
53688;SDS011;39583;54.682;30.662;2024-03-23T14:46:14;6.13;;;1.90;;
53688;SDS011;39583;54.682;30.662;2024-03-23T14:48:43;6.20;;;2.40;;
53688;SDS011;39583;54.682;30.662;2024-03-23T14:51:10;5.93;;;2.20;;
53688;SDS011;39583;54.682;30.662;2024-03-23T14:53:40;5.00;;;2.30;;
53688;SDS011;39583;54.682;30.662;2024-03-23T14:56:11;6.47;;;2.28;;
53688;SDS011;39583;54.682;30.662;2024-03-23T14:58:41;8.98;;;2.95;;
53688;SDS011;39583;54.682;30.662;2024-03-23T15:01:08;5.80;;;2.42;;
53688;SDS011;39583;54.682;30.662;2024-03-23T15:03:36;6.15;;;2.08;;
53688;SDS011;39583;54.682;30.662;2024-03-23T15:06:04;6.88;;;2.17;;
53688;SDS011;39583;54.682;30.662;2024-03-23T15:08:31;8.05;;;3.45;;
53688;SDS011;39583;54.682;30.662;2024-03-23T15:11:01;4.20;;;2.35;;
53688;SDS011;39583;54.682;30.662;2024-03-23T15:13:37;9.10;;;3.75;;
53688;SDS011;39583;54.682;30.662;2024-03-23T15:16:04;9.40;;;3.90;;
53688;SDS011;39583;54.682;30.662;2024-03-23T15:18:32;8.50;;;3.83;;
53688;SDS011;39583;54.682;30.662;2024-03-23T15:20:59;6.60;;;2.50;;
53688;SDS011;39583;54.682;30.662;2024-03-23T15:23:32;4.97;;;2.33;;
53688;SDS011;39583;54.682;30.662;2024-03-23T15:25:59;7.18;;;3.20;;
53688;SDS011;39583;54.682;30.662;2024-03-23T15:28:26;8.35;;;1.92;;
53688;SDS011;39583;54.682;30.662;2024-03-23T15:31:13;4.93;;;2.30;;
53688;SDS011;39583;54.682;30.662;2024-03-23T15:33:39;6.00;;;1.98;;
53688;SDS011;39583;54.682;30.662;2024-03-23T15:36:05;4.70;;;2.00;;
53688;SDS011;39583;54.682;30.662;2024-03-23T15:38:32;5.30;;;1.75;;
53688;SDS011;39583;54.682;30.662;2024-03-23T15:40:59;6.50;;;1.58;;
53688;SDS011;39583;54.682;30.662;2024-03-23T15:43:25;3.22;;;1.75;;
53688;SDS011;39583;54.682;30.662;2024-03-23T15:45:59;3.80;;;1.38;;
53688;SDS011;39583;54.682;30.662;2024-03-23T15:48:28;2.80;;;1.20;;
53688;SDS011;39583;54.682;30.662;2024-03-23T15:50:58;7.38;;;1.73;;
53688;SDS011;39583;54.682;30.662;2024-03-23T15:53:26;5.68;;;1.95;;
53688;SDS011;39583;54.682;30.662;2024-03-23T15:55:57;3.97;;;1.20;;
53688;SDS011;39583;54.682;30.662;2024-03-23T15:58:24;2.17;;;1.15;;
53688;SDS011;39583;54.682;30.662;2024-03-23T16:03:21;1.83;;;0.98;;
53688;SDS011;39583;54.682;30.662;2024-03-23T16:05:55;4.68;;;1.30;;
53688;SDS011;39583;54.682;30.662;2024-03-23T16:08:25;4.55;;;1.20;;
53688;SDS011;39583;54.682;30.662;2024-03-23T16:10:52;4.07;;;1.02;;
53688;SDS011;39583;54.682;30.662;2024-03-23T16:13:20;6.18;;;1.45;;
53688;SDS011;39583;54.682;30.662;2024-03-23T16:15:56;2.25;;;1.17;;
53688;SDS011;39583;54.682;30.662;2024-03-23T16:18:23;4.28;;;1.42;;
53688;SDS011;39583;54.682;30.662;2024-03-23T16:20:54;3.50;;;1.17;;
53688;SDS011;39583;54.682;30.662;2024-03-23T16:23:28;6.80;;;1.55;;
53688;SDS011;39583;54.682;30.662;2024-03-23T16:25:55;5.75;;;1.23;;
53688;SDS011;39583;54.682;30.662;2024-03-23T16:33:29;2.97;;;1.13;;
53688;SDS011;39583;54.682;30.662;2024-03-23T16:38:31;4.77;;;1.20;;
53688;SDS011;39583;54.682;30.662;2024-03-23T16:41:04;6.72;;;1.25;;
53688;SDS011;39583;54.682;30.662;2024-03-23T16:43:32;2.92;;;1.02;;
53688;SDS011;39583;54.682;30.662;2024-03-23T16:46:00;3.45;;;1.10;;
53688;SDS011;39583;54.682;30.662;2024-03-23T16:48:37;3.40;;;1.10;;
53688;SDS011;39583;54.682;30.662;2024-03-23T16:51:05;4.30;;;1.00;;
53688;SDS011;39583;54.682;30.662;2024-03-23T16:53:32;4.70;;;1.20;;
53688;SDS011;39583;54.682;30.662;2024-03-23T16:58:30;3.58;;;1.20;;
53688;SDS011;39583;54.682;30.662;2024-03-23T17:01:08;6.32;;;1.70;;
53688;SDS011;39583;54.682;30.662;2024-03-23T17:03:38;5.97;;;1.10;;
53688;SDS011;39583;54.682;30.662;2024-03-23T17:06:08;3.92;;;1.00;;
53688;SDS011;39583;54.682;30.662;2024-03-23T17:08:36;4.28;;;1.33;;
53688;SDS011;39583;54.682;30.662;2024-03-23T17:11:03;2.67;;;1.02;;
53688;SDS011;39583;54.682;30.662;2024-03-23T17:13:31;2.28;;;1.00;;
53688;SDS011;39583;54.682;30.662;2024-03-23T17:15:58;3.65;;;1.02;;
53688;SDS011;39583;54.682;30.662;2024-03-23T17:18:24;5.93;;;1.17;;
53688;SDS011;39583;54.682;30.662;2024-03-23T17:20:51;4.95;;;1.23;;
53688;SDS011;39583;54.682;30.662;2024-03-23T17:23:22;5.85;;;1.45;;
53688;SDS011;39583;54.682;30.662;2024-03-23T17:25:52;2.58;;;1.20;;
53688;SDS011;39583;54.682;30.662;2024-03-23T17:28:18;3.40;;;1.17;;
53688;SDS011;39583;54.682;30.662;2024-03-23T17:30:45;4.80;;;1.10;;
53688;SDS011;39583;54.682;30.662;2024-03-23T17:33:13;2.63;;;0.85;;
53688;SDS011;39583;54.682;30.662;2024-03-23T17:35:40;8.20;;;1.85;;
53688;SDS011;39583;54.682;30.662;2024-03-23T17:38:06;2.40;;;1.00;;
53688;SDS011;39583;54.682;30.662;2024-03-23T17:40:34;2.70;;;1.42;;
53688;SDS011;39583;54.682;30.662;2024-03-23T17:43:03;3.72;;;1.35;;
53688;SDS011;39583;54.682;30.662;2024-03-23T17:45:30;4.43;;;1.30;;
53688;SDS011;39583;54.682;30.662;2024-03-23T17:47:56;3.35;;;1.00;;
53688;SDS011;39583;54.682;30.662;2024-03-23T17:50:24;4.80;;;1.25;;
53688;SDS011;39583;54.682;30.662;2024-03-23T17:52:54;4.43;;;1.23;;
53688;SDS011;39583;54.682;30.662;2024-03-23T17:55:22;3.95;;;1.38;;
53688;SDS011;39583;54.682;30.662;2024-03-23T17:57:48;3.25;;;1.50;;
53688;SDS011;39583;54.682;30.662;2024-03-23T18:00:14;4.25;;;1.60;;
53688;SDS011;39583;54.682;30.662;2024-03-23T18:02:41;10.00;;;1.73;;
53688;SDS011;39583;54.682;30.662;2024-03-23T18:05:08;7.03;;;2.22;;
53688;SDS011;39583;54.682;30.662;2024-03-23T18:07:35;7.72;;;2.67;;
53688;SDS011;39583;54.682;30.662;2024-03-23T18:10:01;7.18;;;2.50;;
53688;SDS011;39583;54.682;30.662;2024-03-23T18:12:29;10.85;;;3.10;;
53688;SDS011;39583;54.682;30.662;2024-03-23T18:14:56;13.82;;;4.05;;
53688;SDS011;39583;54.682;30.662;2024-03-23T18:17:23;10.98;;;3.70;;
53688;SDS011;39583;54.682;30.662;2024-03-23T18:19:51;10.65;;;3.65;;
53688;SDS011;39583;54.682;30.662;2024-03-23T18:22:20;11.55;;;3.75;;
53688;SDS011;39583;54.682;30.662;2024-03-23T18:24:46;10.77;;;4.20;;
53688;SDS011;39583;54.682;30.662;2024-03-23T18:27:14;11.35;;;4.22;;
53688;SDS011;39583;54.682;30.662;2024-03-23T18:29:42;12.18;;;4.18;;
53688;SDS011;39583;54.682;30.662;2024-03-23T18:32:08;11.48;;;4.43;;
53688;SDS011;39583;54.682;30.662;2024-03-23T18:34:35;10.77;;;4.65;;
53688;SDS011;39583;54.682;30.662;2024-03-23T18:37:03;9.88;;;4.28;;
53688;SDS011;39583;54.682;30.662;2024-03-23T18:39:29;10.07;;;4.28;;
53688;SDS011;39583;54.682;30.662;2024-03-23T18:41:57;9.45;;;4.47;;
53688;SDS011;39583;54.682;30.662;2024-03-23T18:44:25;11.52;;;4.97;;
53688;SDS011;39583;54.682;30.662;2024-03-23T18:46:51;9.25;;;4.85;;
53688;SDS011;39583;54.682;30.662;2024-03-23T18:49:18;11.25;;;4.90;;
53688;SDS011;39583;54.682;30.662;2024-03-23T18:51:45;11.68;;;4.63;;
53688;SDS011;39583;54.682;30.662;2024-03-23T18:54:11;9.05;;;4.97;;
53688;SDS011;39583;54.682;30.662;2024-03-23T18:56:39;10.38;;;4.65;;
53688;SDS011;39583;54.682;30.662;2024-03-23T18:59:06;9.43;;;4.30;;
53688;SDS011;39583;54.682;30.662;2024-03-23T19:01:35;8.30;;;4.30;;
53688;SDS011;39583;54.682;30.662;2024-03-23T19:04:02;7.32;;;3.83;;
53688;SDS011;39583;54.682;30.662;2024-03-23T19:06:28;11.85;;;4.18;;
53688;SDS011;39583;54.682;30.662;2024-03-23T19:08:55;11.13;;;3.67;;
53688;SDS011;39583;54.682;30.662;2024-03-23T19:11:21;4.88;;;3.30;;
53688;SDS011;39583;54.682;30.662;2024-03-23T19:13:52;10.32;;;4.25;;
53688;SDS011;39583;54.682;30.662;2024-03-23T19:16:24;8.45;;;3.83;;
53688;SDS011;39583;54.682;30.662;2024-03-23T19:18:51;8.50;;;3.83;;
53688;SDS011;39583;54.682;30.662;2024-03-23T19:21:18;10.07;;;4.60;;
53688;SDS011;39583;54.682;30.662;2024-03-23T19:23:45;10.05;;;4.80;;
53688;SDS011;39583;54.682;30.662;2024-03-23T19:26:12;9.80;;;4.78;;
53688;SDS011;39583;54.682;30.662;2024-03-23T19:28:38;13.43;;;6.30;;
53688;SDS011;39583;54.682;30.662;2024-03-23T19:31:04;11.32;;;5.65;;
53688;SDS011;39583;54.682;30.662;2024-03-23T19:33:33;10.88;;;5.88;;
53688;SDS011;39583;54.682;30.662;2024-03-23T19:35:59;12.98;;;5.95;;
53688;SDS011;39583;54.682;30.662;2024-03-23T19:38:27;10.60;;;6.25;;
53688;SDS011;39583;54.682;30.662;2024-03-23T19:43:23;10.73;;;5.72;;
53688;SDS011;39583;54.682;30.662;2024-03-23T19:45:50;13.60;;;6.45;;
